Saint Cloud, Minnesota
Current Conditions -  °F | °C
As of 3:53 AM on Saturday 20 Dec 2014 (Local Time) from KSTC Reporting Station
Haze Haze  
Wind Chill: 24°   Ceiling: 400
Heat Index: 32°   Visibility: 2.5mi
Dew Point: 29°   Wind: 9mph
Humidity: 88%   Direction: 170°S
Pressure: 30.11"   Gusts: NA
Location:  45.55°N, 94.06°W
Report Text: KSTC 200953Z AUTO 17008KT 2 1/2SM BR OVC004 00/M02 A3011 RMK AO2 SLP216 I1001 T00001017
Loading
Personal Weather Stations






























Interactive Weather Map New forecast layout! Learn more

10-Day Weather Forecast

Advertisements
Track Severe Weather on mobile